KMNZ

Hamilton Municipal Airport

Hamilton, Texas, USA
METAR KMNZ 160155Z AUTO 26003KT 10SM CLR 11/M06 A3025 RMK AO2 T01131060
Observed Flight Rules
Dec-16 @ 01:55 UTC (6 minutes ago) Visual Flight Rules
Wind Visibility Clouds
260° at 3 knots 10 miles
  • Clear skies
Temperatures Readings
Current 11°C / 52°F
Dewpoint -6°C / 21°F
Humidity 30%
Altimeter 30.25" Hg
Pressure 1024 hPa
Elevation 396
METAR KMNZ 160155Z AUTO 26003KT 10SM CLR 11/M06 A3025 RMK AO2 T01131060
Observed Flight Rules
Dec-16 @ 01:55 UTC
(6 minutes ago)
VFR
Wind Visibility
260° at 3 knots 10 miles
Clouds
  • Clear skies
Temperature Dewpoint
11°C / 52°F -6°C / 21°F
Humidity Altimeter Pressure
30% 30.25" Hg 1024 hPa